Lucas, Mississippi
Current Conditions -  °F | °C
As of 4:55 PM on Thursday 23 Oct 2014 (Local Time) from K1R7 Reporting Station
Clear Clear  
Wind Chill: 66°   Ceiling: Unl
Heat Index: 66°   Visibility: 10mi
Dew Point: 48°   Wind: 5mph
Humidity: 52%   Direction: 330°NNW
Pressure: 30.09"   Gusts: NA
Location:  31.5969°N, 89.8752°W
Report Text: K1R7 232155Z AUTO 33004KT 10SM CLR 19/09 A3009 RMK AO2
Loading
Personal Weather Stations






























Interactive Weather Map New forecast layout! Learn more

10-Day Weather Forecast

Advertisements
Track Severe Weather on mobile